sensor_id;sensor_type;location;lat;lon;timestamp;P1;P2;P0
62631;PMS5003;48703;51.248;-0.546;2023-03-14T00:01:51;5.37;4.77;
62631;PMS5003;48703;51.248;-0.546;2023-03-14T00:04:53;3.86;2.94;
62631;PMS5003;48703;51.248;-0.546;2023-03-14T00:07:54;6.41;5.50;
62631;PMS5003;48703;51.248;-0.546;2023-03-14T00:10:56;5.41;4.06;
62631;PMS5003;48703;51.248;-0.546;2023-03-14T00:13:58;4.97;3.99;
62631;PMS5003;48703;51.248;-0.546;2023-03-14T00:16:59;4.93;4.60;
62631;PMS5003;48703;51.248;-0.546;2023-03-14T00:20:01;3.80;3.51;
62631;PMS5003;48703;51.248;-0.546;2023-03-14T00:23:02;5.81;4.70;
62631;PMS5003;48703;51.248;-0.546;2023-03-14T00:26:04;7.30;5.16;
62631;PMS5003;48703;51.248;-0.546;2023-03-14T00:29:04;4.80;4.13;
62631;PMS5003;48703;51.248;-0.546;2023-03-14T00:32:06;5.96;4.01;
62631;PMS5003;48703;51.248;-0.546;2023-03-14T00:35:08;6.40;4.60;
62631;PMS5003;48703;51.248;-0.546;2023-03-14T00:38:10;5.46;4.24;
62631;PMS5003;48703;51.248;-0.546;2023-03-14T00:41:12;5.07;3.56;
62631;PMS5003;48703;51.248;-0.546;2023-03-14T00:44:13;5.16;3.47;
62631;PMS5003;48703;51.248;-0.546;2023-03-14T00:47:15;3.59;3.59;
62631;PMS5003;48703;51.248;-0.546;2023-03-14T00:50:16;3.53;2.94;
62631;PMS5003;48703;51.248;-0.546;2023-03-14T00:53:18;3.89;3.23;
62631;PMS5003;48703;51.248;-0.546;2023-03-14T00:56:19;3.76;3.29;
62631;PMS5003;48703;51.248;-0.546;2023-03-14T00:59:21;3.56;3.00;
62631;PMS5003;48703;51.248;-0.546;2023-03-14T01:02:22;3.84;3.84;
62631;PMS5003;48703;51.248;-0.546;2023-03-14T01:05:24;2.69;2.34;
62631;PMS5003;48703;51.248;-0.546;2023-03-14T01:08:25;2.91;2.60;
62631;PMS5003;48703;51.248;-0.546;2023-03-14T01:11:28;2.31;1.19;
62631;PMS5003;48703;51.248;-0.546;2023-03-14T01:14:28;0.41;0.41;
62631;PMS5003;48703;51.248;-0.546;2023-03-14T01:17:30;0.73;0.73;
62631;PMS5003;48703;51.248;-0.546;2023-03-14T01:20:32;0.00;0.00;
62631;PMS5003;48703;51.248;-0.546;2023-03-14T01:23:33;0.44;0.44;
62631;PMS5003;48703;51.248;-0.546;2023-03-14T01:26:35;0.51;0.00;
62631;PMS5003;48703;51.248;-0.546;2023-03-14T01:29:37;0.39;0.39;
62631;PMS5003;48703;51.248;-0.546;2023-03-14T01:32:38;0.00;0.00;
62631;PMS5003;48703;51.248;-0.546;2023-03-14T01:35:40;0.00;0.00;
62631;PMS5003;48703;51.248;-0.546;2023-03-14T01:38:42;0.14;0.14;
62631;PMS5003;48703;51.248;-0.546;2023-03-14T01:41:43;0.39;0.39;
62631;PMS5003;48703;51.248;-0.546;2023-03-14T01:44:47;0.09;0.09;
62631;PMS5003;48703;51.248;-0.546;2023-03-14T01:47:47;0.64;0.34;
62631;PMS5003;48703;51.248;-0.546;2023-03-14T01:50:48;0.17;0.17;
62631;PMS5003;48703;51.248;-0.546;2023-03-14T01:53:50;0.87;0.19;
62631;PMS5003;48703;51.248;-0.546;2023-03-14T01:56:53;1.11;0.94;
62631;PMS5003;48703;51.248;-0.546;2023-03-14T01:59:54;2.19;1.46;
62631;PMS5003;48703;51.248;-0.546;2023-03-14T02:02:56;0.94;0.94;
62631;PMS5003;48703;51.248;-0.546;2023-03-14T02:05:57;0.49;0.49;
62631;PMS5003;48703;51.248;-0.546;2023-03-14T02:08:58;0.57;0.57;
62631;PMS5003;48703;51.248;-0.546;2023-03-14T02:12:00;0.73;0.73;
62631;PMS5003;48703;51.248;-0.546;2023-03-14T02:15:02;1.79;1.53;
62631;PMS5003;48703;51.248;-0.546;2023-03-14T02:18:04;0.86;0.86;
62631;PMS5003;48703;51.248;-0.546;2023-03-14T02:21:07;1.11;0.81;
62631;PMS5003;48703;51.248;-0.546;2023-03-14T02:24:08;1.31;0.80;
62631;PMS5003;48703;51.248;-0.546;2023-03-14T02:27:09;0.94;0.94;
62631;PMS5003;48703;51.248;-0.546;2023-03-14T02:30:12;1.49;1.49;
62631;PMS5003;48703;51.248;-0.546;2023-03-14T02:33:12;1.21;1.21;
62631;PMS5003;48703;51.248;-0.546;2023-03-14T02:36:14;1.57;1.43;
62631;PMS5003;48703;51.248;-0.546;2023-03-14T02:39:16;1.73;1.13;
62631;PMS5003;48703;51.248;-0.546;2023-03-14T02:42:17;1.00;1.00;
62631;PMS5003;48703;51.248;-0.546;2023-03-14T02:45:51;0.91;0.91;
62631;PMS5003;48703;51.248;-0.546;2023-03-14T02:48:21;1.47;0.86;
62631;PMS5003;48703;51.248;-0.546;2023-03-14T02:51:22;0.07;0.07;
62631;PMS5003;48703;51.248;-0.546;2023-03-14T02:54:24;1.70;1.31;
62631;PMS5003;48703;51.248;-0.546;2023-03-14T02:57:26;1.07;0.17;
62631;PMS5003;48703;51.248;-0.546;2023-03-14T03:00:27;0.64;0.47;
62631;PMS5003;48703;51.248;-0.546;2023-03-14T03:03:29;0.61;0.61;
62631;PMS5003;48703;51.248;-0.546;2023-03-14T03:06:31;0.83;0.83;
62631;PMS5003;48703;51.248;-0.546;2023-03-14T03:09:32;0.47;0.47;
62631;PMS5003;48703;51.248;-0.546;2023-03-14T03:12:34;0.86;0.86;
62631;PMS5003;48703;51.248;-0.546;2023-03-14T03:15:36;0.51;0.39;
62631;PMS5003;48703;51.248;-0.546;2023-03-14T03:18:38;0.43;0.13;
62631;PMS5003;48703;51.248;-0.546;2023-03-14T03:21:39;0.39;0.39;
62631;PMS5003;48703;51.248;-0.546;2023-03-14T03:24:41;1.04;0.79;
62631;PMS5003;48703;51.248;-0.546;2023-03-14T03:27:43;1.00;1.00;
62631;PMS5003;48703;51.248;-0.546;2023-03-14T03:30:45;0.86;0.86;
62631;PMS5003;48703;51.248;-0.546;2023-03-14T03:33:46;0.89;0.89;
62631;PMS5003;48703;51.248;-0.546;2023-03-14T03:36:48;0.74;0.74;
62631;PMS5003;48703;51.248;-0.546;2023-03-14T03:39:50;0.64;0.64;
62631;PMS5003;48703;51.248;-0.546;2023-03-14T03:42:52;0.76;0.50;
62631;PMS5003;48703;51.248;-0.546;2023-03-14T03:45:53;0.86;0.40;
62631;PMS5003;48703;51.248;-0.546;2023-03-14T03:48:55;0.87;0.87;
62631;PMS5003;48703;51.248;-0.546;2023-03-14T03:51:57;1.91;1.60;
62631;PMS5003;48703;51.248;-0.546;2023-03-14T03:54:58;2.67;1.27;
62631;PMS5003;48703;51.248;-0.546;2023-03-14T03:58:00;1.59;0.53;
62631;PMS5003;48703;51.248;-0.546;2023-03-14T04:01:02;1.99;1.24;
62631;PMS5003;48703;51.248;-0.546;2023-03-14T04:04:04;1.46;1.46;
62631;PMS5003;48703;51.248;-0.546;2023-03-14T04:07:05;1.19;0.94;
62631;PMS5003;48703;51.248;-0.546;2023-03-14T04:10:07;1.83;1.69;
62631;PMS5003;48703;51.248;-0.546;2023-03-14T04:13:09;2.04;1.39;
62631;PMS5003;48703;51.248;-0.546;2023-03-14T04:16:12;1.29;0.91;
62631;PMS5003;48703;51.248;-0.546;2023-03-14T04:19:12;1.91;1.24;
62631;PMS5003;48703;51.248;-0.546;2023-03-14T04:22:14;1.06;1.06;
62631;PMS5003;48703;51.248;-0.546;2023-03-14T04:25:16;1.93;1.67;
62631;PMS5003;48703;51.248;-0.546;2023-03-14T04:28:18;2.09;2.09;
62631;PMS5003;48703;51.248;-0.546;2023-03-14T04:31:20;2.47;2.46;
62631;PMS5003;48703;51.248;-0.546;2023-03-14T04:34:21;1.91;1.00;
62631;PMS5003;48703;51.248;-0.546;2023-03-14T04:37:23;1.79;1.04;
62631;PMS5003;48703;51.248;-0.546;2023-03-14T04:40:25;1.09;1.09;
62631;PMS5003;48703;51.248;-0.546;2023-03-14T04:43:26;2.04;1.19;
62631;PMS5003;48703;51.248;-0.546;2023-03-14T04:46:28;1.13;0.66;
62631;PMS5003;48703;51.248;-0.546;2023-03-14T04:49:30;2.50;1.24;
62631;PMS5003;48703;51.248;-0.546;2023-03-14T04:52:32;1.17;0.86;
62631;PMS5003;48703;51.248;-0.546;2023-03-14T04:55:33;2.66;1.71;
62631;PMS5003;48703;51.248;-0.546;2023-03-14T04:58:35;1.10;1.06;
62631;PMS5003;48703;51.248;-0.546;2023-03-14T05:01:37;0.69;0.47;
62631;PMS5003;48703;51.248;-0.546;2023-03-14T05:04:39;1.44;1.44;
62631;PMS5003;48703;51.248;-0.546;2023-03-14T05:07:40;2.88;2.29;
62631;PMS5003;48703;51.248;-0.546;2023-03-14T05:10:43;1.33;1.33;
62631;PMS5003;48703;51.248;-0.546;2023-03-14T05:13:44;1.97;1.36;
62631;PMS5003;48703;51.248;-0.546;2023-03-14T05:16:46;2.61;1.67;
62631;PMS5003;48703;51.248;-0.546;2023-03-14T05:19:48;1.20;1.03;
62631;PMS5003;48703;51.248;-0.546;2023-03-14T05:22:50;1.41;0.79;
62631;PMS5003;48703;51.248;-0.546;2023-03-14T05:25:52;2.36;1.43;
62631;PMS5003;48703;51.248;-0.546;2023-03-14T05:28:53;1.96;0.94;
62631;PMS5003;48703;51.248;-0.546;2023-03-14T05:31:55;1.43;1.43;
62631;PMS5003;48703;51.248;-0.546;2023-03-14T05:34:57;1.31;1.31;
62631;PMS5003;48703;51.248;-0.546;2023-03-14T05:37:58;1.94;1.94;
62631;PMS5003;48703;51.248;-0.546;2023-03-14T05:41:00;2.74;2.23;
62631;PMS5003;48703;51.248;-0.546;2023-03-14T05:44:02;1.29;1.10;
62631;PMS5003;48703;51.248;-0.546;2023-03-14T05:47:04;2.47;1.83;
62631;PMS5003;48703;51.248;-0.546;2023-03-14T05:50:06;1.01;0.76;
62631;PMS5003;48703;51.248;-0.546;2023-03-14T05:53:07;1.37;0.81;
62631;PMS5003;48703;51.248;-0.546;2023-03-14T05:56:09;3.33;2.47;
62631;PMS5003;48703;51.248;-0.546;2023-03-14T05:59:11;1.06;0.63;
62631;PMS5003;48703;51.248;-0.546;2023-03-14T06:02:12;2.34;1.97;
62631;PMS5003;48703;51.248;-0.546;2023-03-14T06:05:14;1.51;1.51;
62631;PMS5003;48703;51.248;-0.546;2023-03-14T06:08:16;2.14;1.96;
62631;PMS5003;48703;51.248;-0.546;2023-03-14T06:11:18;3.69;2.06;
62631;PMS5003;48703;51.248;-0.546;2023-03-14T06:14:20;6.16;4.20;
62631;PMS5003;48703;51.248;-0.546;2023-03-14T06:17:22;4.29;3.94;
62631;PMS5003;48703;51.248;-0.546;2023-03-14T06:20:24;17.10;16.54;
62631;PMS5003;48703;51.248;-0.546;2023-03-14T06:23:26;6.86;5.49;
62631;PMS5003;48703;51.248;-0.546;2023-03-14T06:26:27;2.46;1.39;
62631;PMS5003;48703;51.248;-0.546;2023-03-14T06:29:29;1.69;1.34;
62631;PMS5003;48703;51.248;-0.546;2023-03-14T06:32:31;3.20;2.29;
62631;PMS5003;48703;51.248;-0.546;2023-03-14T06:35:33;1.87;1.44;
62631;PMS5003;48703;51.248;-0.546;2023-03-14T06:38:34;2.84;2.73;
62631;PMS5003;48703;51.248;-0.546;2023-03-14T06:41:36;1.60;1.21;
62631;PMS5003;48703;51.248;-0.546;2023-03-14T06:44:38;2.10;1.70;
62631;PMS5003;48703;51.248;-0.546;2023-03-14T06:47:40;1.34;1.34;
62631;PMS5003;48703;51.248;-0.546;2023-03-14T06:50:42;1.47;0.74;
62631;PMS5003;48703;51.248;-0.546;2023-03-14T06:53:43;1.39;1.34;
62631;PMS5003;48703;51.248;-0.546;2023-03-14T06:56:45;1.74;1.64;
62631;PMS5003;48703;51.248;-0.546;2023-03-14T06:59:47;2.83;2.36;
62631;PMS5003;48703;51.248;-0.546;2023-03-14T07:02:49;2.00;1.00;
62631;PMS5003;48703;51.248;-0.546;2023-03-14T07:05:51;3.07;1.77;
62631;PMS5003;48703;51.248;-0.546;2023-03-14T07:08:52;1.34;1.34;
62631;PMS5003;48703;51.248;-0.546;2023-03-14T07:11:54;1.20;0.81;
62631;PMS5003;48703;51.248;-0.546;2023-03-14T07:14:56;2.80;1.60;
62631;PMS5003;48703;51.248;-0.546;2023-03-14T07:17:58;2.09;1.64;
62631;PMS5003;48703;51.248;-0.546;2023-03-14T07:21:00;1.39;1.39;
62631;PMS5003;48703;51.248;-0.546;2023-03-14T07:24:02;2.03;1.26;
62631;PMS5003;48703;51.248;-0.546;2023-03-14T07:27:03;1.99;1.43;
62631;PMS5003;48703;51.248;-0.546;2023-03-14T07:30:05;1.77;1.07;
62631;PMS5003;48703;51.248;-0.546;2023-03-14T07:33:07;2.36;1.20;
62631;PMS5003;48703;51.248;-0.546;2023-03-14T07:36:08;2.59;1.40;
62631;PMS5003;48703;51.248;-0.546;2023-03-14T07:39:10;1.54;0.90;
62631;PMS5003;48703;51.248;-0.546;2023-03-14T07:42:12;2.74;1.77;
62631;PMS5003;48703;51.248;-0.546;2023-03-14T07:45:14;2.29;1.73;
62631;PMS5003;48703;51.248;-0.546;2023-03-14T07:48:16;2.14;1.54;
62631;PMS5003;48703;51.248;-0.546;2023-03-14T07:51:17;2.01;1.29;
62631;PMS5003;48703;51.248;-0.546;2023-03-14T07:54:19;1.59;1.59;
62631;PMS5003;48703;51.248;-0.546;2023-03-14T07:57:21;1.96;1.36;
62631;PMS5003;48703;51.248;-0.546;2023-03-14T08:00:23;2.60;1.91;
62631;PMS5003;48703;51.248;-0.546;2023-03-14T08:03:25;3.43;2.10;
62631;PMS5003;48703;51.248;-0.546;2023-03-14T08:06:26;1.60;1.19;
62631;PMS5003;48703;51.248;-0.546;2023-03-14T08:09:28;1.93;1.37;
62631;PMS5003;48703;51.248;-0.546;2023-03-14T08:12:30;1.91;1.49;
62631;PMS5003;48703;51.248;-0.546;2023-03-14T08:15:32;2.51;1.41;
62631;PMS5003;48703;51.248;-0.546;2023-03-14T08:18:33;1.80;1.23;
62631;PMS5003;48703;51.248;-0.546;2023-03-14T08:21:35;1.57;0.91;
62631;PMS5003;48703;51.248;-0.546;2023-03-14T08:24:37;0.67;0.67;
62631;PMS5003;48703;51.248;-0.546;2023-03-14T08:27:39;2.23;1.37;
62631;PMS5003;48703;51.248;-0.546;2023-03-14T08:30:41;2.47;2.04;
62631;PMS5003;48703;51.248;-0.546;2023-03-14T08:33:43;2.89;1.99;
62631;PMS5003;48703;51.248;-0.546;2023-03-14T08:36:44;1.50;1.46;
62631;PMS5003;48703;51.248;-0.546;2023-03-14T08:39:46;2.11;1.54;
62631;PMS5003;48703;51.248;-0.546;2023-03-14T08:42:48;2.44;1.86;
62631;PMS5003;48703;51.248;-0.546;2023-03-14T08:45:50;1.17;1.07;
62631;PMS5003;48703;51.248;-0.546;2023-03-14T08:48:52;2.76;2.03;
62631;PMS5003;48703;51.248;-0.546;2023-03-14T08:51:53;2.20;2.20;
62631;PMS5003;48703;51.248;-0.546;2023-03-14T08:54:55;2.10;0.99;
62631;PMS5003;48703;51.248;-0.546;2023-03-14T08:57:57;1.96;1.83;
62631;PMS5003;48703;51.248;-0.546;2023-03-14T09:00:59;2.13;1.57;
62631;PMS5003;48703;51.248;-0.546;2023-03-14T09:04:00;1.60;1.17;
62631;PMS5003;48703;51.248;-0.546;2023-03-14T09:07:02;1.74;1.64;
62631;PMS5003;48703;51.248;-0.546;2023-03-14T09:10:05;1.11;0.69;
62631;PMS5003;48703;51.248;-0.546;2023-03-14T09:13:06;2.41;1.34;
62631;PMS5003;48703;51.248;-0.546;2023-03-14T09:16:08;1.81;1.41;
62631;PMS5003;48703;51.248;-0.546;2023-03-14T09:19:09;0.24;0.24;
62631;PMS5003;48703;51.248;-0.546;2023-03-14T09:22:11;0.64;0.51;
62631;PMS5003;48703;51.248;-0.546;2023-03-14T09:25:13;0.41;0.13;
62631;PMS5003;48703;51.248;-0.546;2023-03-14T09:28:15;0.64;0.26;
62631;PMS5003;48703;51.248;-0.546;2023-03-14T09:31:16;1.07;0.50;
62631;PMS5003;48703;51.248;-0.546;2023-03-14T09:34:18;0.46;0.11;
62631;PMS5003;48703;51.248;-0.546;2023-03-14T09:37:20;0.11;0.11;
62631;PMS5003;48703;51.248;-0.546;2023-03-14T09:40:22;0.76;0.31;
62631;PMS5003;48703;51.248;-0.546;2023-03-14T09:43:24;0.56;0.56;
62631;PMS5003;48703;51.248;-0.546;2023-03-14T09:46:25;0.30;0.30;
62631;PMS5003;48703;51.248;-0.546;2023-03-14T09:49:28;0.90;0.54;
62631;PMS5003;48703;51.248;-0.546;2023-03-14T09:52:30;0.94;0.90;
62631;PMS5003;48703;51.248;-0.546;2023-03-14T09:55:31;1.37;0.63;
62631;PMS5003;48703;51.248;-0.546;2023-03-14T09:58:33;1.21;1.21;
62631;PMS5003;48703;51.248;-0.546;2023-03-14T10:01:34;1.34;1.34;
62631;PMS5003;48703;51.248;-0.546;2023-03-14T10:04:36;2.19;1.33;
62631;PMS5003;48703;51.248;-0.546;2023-03-14T10:07:38;2.35;1.96;
62631;PMS5003;48703;51.248;-0.546;2023-03-14T10:10:40;1.43;1.43;
62631;PMS5003;48703;51.248;-0.546;2023-03-14T10:13:50;1.71;1.07;
62631;PMS5003;48703;51.248;-0.546;2023-03-14T10:16:44;2.75;2.45;
62631;PMS5003;48703;51.248;-0.546;2023-03-14T10:19:53;1.47;1.04;
62631;PMS5003;48703;51.248;-0.546;2023-03-14T10:22:46;0.69;0.69;
62631;PMS5003;48703;51.248;-0.546;2023-03-14T10:25:58;1.77;1.29;
62631;PMS5003;48703;51.248;-0.546;2023-03-14T10:28:51;1.87;1.26;
62631;PMS5003;48703;51.248;-0.546;2023-03-14T10:31:52;1.31;1.31;
62631;PMS5003;48703;51.248;-0.546;2023-03-14T10:35:17;1.90;1.90;
62631;PMS5003;48703;51.248;-0.546;2023-03-14T10:37:55;2.26;2.26;
62631;PMS5003;48703;51.248;-0.546;2023-03-14T10:40:57;2.09;1.66;
62631;PMS5003;48703;51.248;-0.546;2023-03-14T10:43:59;3.60;2.30;
62631;PMS5003;48703;51.248;-0.546;2023-03-14T10:47:01;3.31;2.24;
62631;PMS5003;48703;51.248;-0.546;2023-03-14T10:50:19;3.36;2.20;
62631;PMS5003;48703;51.248;-0.546;2023-03-14T10:53:04;2.94;2.13;
62631;PMS5003;48703;51.248;-0.546;2023-03-14T10:56:06;2.14;1.61;
62631;PMS5003;48703;51.248;-0.546;2023-03-14T10:59:11;3.39;2.49;
62631;PMS5003;48703;51.248;-0.546;2023-03-14T11:02:14;2.19;2.19;
62631;PMS5003;48703;51.248;-0.546;2023-03-14T11:05:15;3.27;2.33;
62631;PMS5003;48703;51.248;-0.546;2023-03-14T11:08:14;4.24;2.87;
62631;PMS5003;48703;51.248;-0.546;2023-03-14T11:11:16;2.87;2.87;
62631;PMS5003;48703;51.248;-0.546;2023-03-14T11:14:19;4.00;3.37;
62631;PMS5003;48703;51.248;-0.546;2023-03-14T11:17:19;2.81;2.21;
62631;PMS5003;48703;51.248;-0.546;2023-03-14T11:20:24;3.30;2.66;
62631;PMS5003;48703;51.248;-0.546;2023-03-14T11:23:22;3.67;3.13;
62631;PMS5003;48703;51.248;-0.546;2023-03-14T11:26:26;3.16;2.43;
62631;PMS5003;48703;51.248;-0.546;2023-03-14T11:29:26;3.17;2.88;
62631;PMS5003;48703;51.248;-0.546;2023-03-14T11:32:34;1.83;1.83;
62631;PMS5003;48703;51.248;-0.546;2023-03-14T11:35:29;2.64;1.64;
62631;PMS5003;48703;51.248;-0.546;2023-03-14T11:38:32;3.23;2.67;
62631;PMS5003;48703;51.248;-0.546;2023-03-14T11:41:32;2.57;1.67;
62631;PMS5003;48703;51.248;-0.546;2023-03-14T11:44:34;2.17;1.91;
62631;PMS5003;48703;51.248;-0.546;2023-03-14T11:47:37;2.69;2.34;
62631;PMS5003;48703;51.248;-0.546;2023-03-14T11:50:37;3.39;2.47;
62631;PMS5003;48703;51.248;-0.546;2023-03-14T11:53:43;2.39;1.96;
62631;PMS5003;48703;51.248;-0.546;2023-03-14T11:56:43;1.87;1.87;
62631;PMS5003;48703;51.248;-0.546;2023-03-14T11:59:45;2.09;1.83;
62631;PMS5003;48703;51.248;-0.546;2023-03-14T12:02:47;2.37;1.94;
62631;PMS5003;48703;51.248;-0.546;2023-03-14T12:05:47;1.31;1.23;
62631;PMS5003;48703;51.248;-0.546;2023-03-14T12:08:47;2.53;1.61;
62631;PMS5003;48703;51.248;-0.546;2023-03-14T12:11:49;1.50;1.23;
62631;PMS5003;48703;51.248;-0.546;2023-03-14T12:14:53;2.64;1.53;
62631;PMS5003;48703;51.248;-0.546;2023-03-14T12:17:53;2.67;2.26;
62631;PMS5003;48703;51.248;-0.546;2023-03-14T12:20:55;1.81;1.73;
62631;PMS5003;48703;51.248;-0.546;2023-03-14T12:23:56;2.29;1.56;
62631;PMS5003;48703;51.248;-0.546;2023-03-14T12:26:58;2.47;1.83;
62631;PMS5003;48703;51.248;-0.546;2023-03-14T12:30:00;1.90;1.16;
62631;PMS5003;48703;51.248;-0.546;2023-03-14T12:33:12;2.50;1.51;
62631;PMS5003;48703;51.248;-0.546;2023-03-14T12:36:04;3.17;2.74;
62631;PMS5003;48703;51.248;-0.546;2023-03-14T12:39:10;2.36;1.57;
62631;PMS5003;48703;51.248;-0.546;2023-03-14T12:42:09;2.30;1.74;
62631;PMS5003;48703;51.248;-0.546;2023-03-14T12:45:21;1.89;1.61;
62631;PMS5003;48703;51.248;-0.546;2023-03-14T12:48:10;1.06;1.06;
62631;PMS5003;48703;51.248;-0.546;2023-03-14T12:51:13;1.91;1.64;
62631;PMS5003;48703;51.248;-0.546;2023-03-14T12:54:45;3.46;2.34;
62631;PMS5003;48703;51.248;-0.546;2023-03-14T12:57:19;1.90;0.87;
62631;PMS5003;48703;51.248;-0.546;2023-03-14T13:00:17;2.03;1.30;
62631;PMS5003;48703;51.248;-0.546;2023-03-14T13:03:19;1.44;1.44;
62631;PMS5003;48703;51.248;-0.546;2023-03-14T13:06:46;2.94;2.47;
62631;PMS5003;48703;51.248;-0.546;2023-03-14T13:09:53;2.60;1.53;
62631;PMS5003;48703;51.248;-0.546;2023-03-14T13:12:25;0.19;0.19;
62631;PMS5003;48703;51.248;-0.546;2023-03-14T13:15:27;2.03;1.56;
62631;PMS5003;48703;51.248;-0.546;2023-03-14T13:18:28;1.09;0.93;
62631;PMS5003;48703;51.248;-0.546;2023-03-14T13:21:29;1.21;1.13;
62631;PMS5003;48703;51.248;-0.546;2023-03-14T13:24:32;0.24;0.20;
62631;PMS5003;48703;51.248;-0.546;2023-03-14T13:27:33;0.59;0.59;
62631;PMS5003;48703;51.248;-0.546;2023-03-14T13:30:39;1.69;1.64;
62631;PMS5003;48703;51.248;-0.546;2023-03-14T13:33:35;0.31;0.31;
62631;PMS5003;48703;51.248;-0.546;2023-03-14T13:36:37;0.87;0.87;
62631;PMS5003;48703;51.248;-0.546;2023-03-14T13:39:39;1.73;1.34;
62631;PMS5003;48703;51.248;-0.546;2023-03-14T13:42:40;0.51;0.43;
62631;PMS5003;48703;51.248;-0.546;2023-03-14T13:45:44;1.21;0.63;
62631;PMS5003;48703;51.248;-0.546;2023-03-14T13:48:47;1.20;1.20;
62631;PMS5003;48703;51.248;-0.546;2023-03-14T13:51:46;1.21;0.83;
62631;PMS5003;48703;51.248;-0.546;2023-03-14T13:54:47;1.47;0.44;
62631;PMS5003;48703;51.248;-0.546;2023-03-14T13:57:50;0.59;0.27;
62631;PMS5003;48703;51.248;-0.546;2023-03-14T14:00:59;2.36;1.26;
62631;PMS5003;48703;51.248;-0.546;2023-03-14T14:03:53;1.11;0.54;
62631;PMS5003;48703;51.248;-0.546;2023-03-14T14:06:55;0.51;0.51;
62631;PMS5003;48703;51.248;-0.546;2023-03-14T14:09:56;0.07;0.07;
62631;PMS5003;48703;51.248;-0.546;2023-03-14T14:12:58;0.74;0.57;
62631;PMS5003;48703;51.248;-0.546;2023-03-14T14:15:59;1.46;0.40;
62631;PMS5003;48703;51.248;-0.546;2023-03-14T14:19:01;1.01;0.36;
62631;PMS5003;48703;51.248;-0.546;2023-03-14T14:22:02;1.30;0.16;
62631;PMS5003;48703;51.248;-0.546;2023-03-14T14:25:04;0.11;0.11;
62631;PMS5003;48703;51.248;-0.546;2023-03-14T14:28:17;1.46;0.76;
62631;PMS5003;48703;51.248;-0.546;2023-03-14T14:31:24;2.47;0.89;
62631;PMS5003;48703;51.248;-0.546;2023-03-14T14:34:17;1.01;0.87;
62631;PMS5003;48703;51.248;-0.546;2023-03-14T14:37:17;1.94;0.84;
62631;PMS5003;48703;51.248;-0.546;2023-03-14T14:40:16;0.91;0.76;
62631;PMS5003;48703;51.248;-0.546;2023-03-14T14:43:15;0.91;0.37;
62631;PMS5003;48703;51.248;-0.546;2023-03-14T14:46:16;1.29;1.20;
62631;PMS5003;48703;51.248;-0.546;2023-03-14T14:49:18;2.16;1.39;
62631;PMS5003;48703;51.248;-0.546;2023-03-14T14:52:19;1.29;0.87;
62631;PMS5003;48703;51.248;-0.546;2023-03-14T14:55:20;0.79;0.29;
62631;PMS5003;48703;51.248;-0.546;2023-03-14T14:58:23;0.29;0.29;
62631;PMS5003;48703;51.248;-0.546;2023-03-14T15:01:24;1.09;0.99;
62631;PMS5003;48703;51.248;-0.546;2023-03-14T15:04:25;1.04;0.64;
62631;PMS5003;48703;51.248;-0.546;2023-03-14T15:07:27;1.59;0.56;
62631;PMS5003;48703;51.248;-0.546;2023-03-14T15:10:28;2.07;0.93;
62631;PMS5003;48703;51.248;-0.546;2023-03-14T15:13:30;1.31;1.17;
62631;PMS5003;48703;51.248;-0.546;2023-03-14T15:16:32;1.33;1.33;
62631;PMS5003;48703;51.248;-0.546;2023-03-14T15:19:33;2.31;1.13;
62631;PMS5003;48703;51.248;-0.546;2023-03-14T15:22:35;2.09;1.54;
62631;PMS5003;48703;51.248;-0.546;2023-03-14T15:25:37;2.31;1.34;
62631;PMS5003;48703;51.248;-0.546;2023-03-14T15:28:38;1.31;0.50;
62631;PMS5003;48703;51.248;-0.546;2023-03-14T15:31:41;2.89;1.29;
62631;PMS5003;48703;51.248;-0.546;2023-03-14T15:34:42;1.00;1.00;
62631;PMS5003;48703;51.248;-0.546;2023-03-14T15:37:43;0.76;0.76;
62631;PMS5003;48703;51.248;-0.546;2023-03-14T15:40:45;0.97;0.69;
62631;PMS5003;48703;51.248;-0.546;2023-03-14T15:43:47;1.09;1.09;
62631;PMS5003;48703;51.248;-0.546;2023-03-14T15:46:48;1.46;1.17;
62631;PMS5003;48703;51.248;-0.546;2023-03-14T15:49:50;1.53;1.50;
62631;PMS5003;48703;51.248;-0.546;2023-03-14T15:52:51;1.86;1.39;
62631;PMS5003;48703;51.248;-0.546;2023-03-14T15:55:53;0.90;0.90;
62631;PMS5003;48703;51.248;-0.546;2023-03-14T15:58:55;1.21;1.21;
62631;PMS5003;48703;51.248;-0.546;2023-03-14T16:01:57;1.11;1.11;
62631;PMS5003;48703;51.248;-0.546;2023-03-14T16:04:58;1.31;1.31;
62631;PMS5003;48703;51.248;-0.546;2023-03-14T16:07:59;2.81;2.46;
62631;PMS5003;48703;51.248;-0.546;2023-03-14T16:11:01;1.51;1.51;
62631;PMS5003;48703;51.248;-0.546;2023-03-14T16:14:03;1.33;1.33;
62631;PMS5003;48703;51.248;-0.546;2023-03-14T16:17:04;1.87;1.23;
62631;PMS5003;48703;51.248;-0.546;2023-03-14T16:20:06;1.90;1.70;
62631;PMS5003;48703;51.248;-0.546;2023-03-14T16:23:08;1.27;1.27;
62631;PMS5003;48703;51.248;-0.546;2023-03-14T16:26:10;1.69;1.17;
62631;PMS5003;48703;51.248;-0.546;2023-03-14T16:29:11;1.77;1.26;
62631;PMS5003;48703;51.248;-0.546;2023-03-14T16:32:13;1.13;1.13;
62631;PMS5003;48703;51.248;-0.546;2023-03-14T16:35:14;0.90;0.90;
62631;PMS5003;48703;51.248;-0.546;2023-03-14T16:38:16;1.29;1.29;
62631;PMS5003;48703;51.248;-0.546;2023-03-14T16:41:18;2.74;2.20;
62631;PMS5003;48703;51.248;-0.546;2023-03-14T16:44:19;1.47;1.39;
62631;PMS5003;48703;51.248;-0.546;2023-03-14T16:47:21;1.23;1.23;
62631;PMS5003;48703;51.248;-0.546;2023-03-14T16:50:23;1.19;1.19;
62631;PMS5003;48703;51.248;-0.546;2023-03-14T16:53:24;1.21;0.96;
62631;PMS5003;48703;51.248;-0.546;2023-03-14T16:56:26;1.04;0.91;
62631;PMS5003;48703;51.248;-0.546;2023-03-14T16:59:28;1.49;0.93;
62631;PMS5003;48703;51.248;-0.546;2023-03-14T17:02:29;0.67;0.67;
62631;PMS5003;48703;51.248;-0.546;2023-03-14T17:05:31;1.14;0.63;
62631;PMS5003;48703;51.248;-0.546;2023-03-14T17:08:33;1.60;1.60;
62631;PMS5003;48703;51.248;-0.546;2023-03-14T17:11:34;2.11;1.13;
62631;PMS5003;48703;51.248;-0.546;2023-03-14T17:14:36;1.40;1.31;
62631;PMS5003;48703;51.248;-0.546;2023-03-14T17:17:38;0.79;0.79;
62631;PMS5003;48703;51.248;-0.546;2023-03-14T17:20:39;1.49;1.49;
62631;PMS5003;48703;51.248;-0.546;2023-03-14T17:23:41;2.66;2.19;
62631;PMS5003;48703;51.248;-0.546;2023-03-14T17:26:43;1.37;1.37;
62631;PMS5003;48703;51.248;-0.546;2023-03-14T17:29:44;1.64;1.17;
62631;PMS5003;48703;51.248;-0.546;2023-03-14T17:32:46;1.14;1.14;
62631;PMS5003;48703;51.248;-0.546;2023-03-14T17:35:48;2.69;1.57;
62631;PMS5003;48703;51.248;-0.546;2023-03-14T17:38:49;1.59;1.24;
62631;PMS5003;48703;51.248;-0.546;2023-03-14T17:41:51;8.93;8.44;
62631;PMS5003;48703;51.248;-0.546;2023-03-14T17:44:53;9.44;8.37;
62631;PMS5003;48703;51.248;-0.546;2023-03-14T17:47:55;5.14;4.41;
62631;PMS5003;48703;51.248;-0.546;2023-03-14T17:50:56;10.81;8.94;
62631;PMS5003;48703;51.248;-0.546;2023-03-14T17:53:58;9.74;8.26;
62631;PMS5003;48703;51.248;-0.546;2023-03-14T17:57:00;4.03;3.03;
62631;PMS5003;48703;51.248;-0.546;2023-03-14T18:00:02;3.16;2.51;
62631;PMS5003;48703;51.248;-0.546;2023-03-14T18:03:03;3.23;3.23;
62631;PMS5003;48703;51.248;-0.546;2023-03-14T18:06:05;10.51;10.51;
62631;PMS5003;48703;51.248;-0.546;2023-03-14T18:09:07;6.10;5.19;
62631;PMS5003;48703;51.248;-0.546;2023-03-14T18:12:09;4.19;4.07;
62631;PMS5003;48703;51.248;-0.546;2023-03-14T18:15:10;3.10;2.83;
62631;PMS5003;48703;51.248;-0.546;2023-03-14T18:18:12;2.81;2.47;
62631;PMS5003;48703;51.248;-0.546;2023-03-14T18:21:14;2.30;2.06;
62631;PMS5003;48703;51.248;-0.546;2023-03-14T18:24:16;2.73;2.39;
62631;PMS5003;48703;51.248;-0.546;2023-03-14T18:27:17;5.43;4.51;
62631;PMS5003;48703;51.248;-0.546;2023-03-14T18:30:19;5.53;4.44;
62631;PMS5003;48703;51.248;-0.546;2023-03-14T18:33:20;5.64;5.14;